createdAt,value
2022-08-26T00:00:13.921Z,0.00
2022-08-26T00:01:13.903Z,0.00
2022-08-26T00:02:13.911Z,0.00
2022-08-26T00:03:13.885Z,0.00
2022-08-26T00:04:13.966Z,0.00
2022-08-26T00:05:13.885Z,0.00
2022-08-26T00:06:13.852Z,0.00
2022-08-26T00:07:13.838Z,0.00
2022-08-26T00:08:13.834Z,0.00
2022-08-26T00:09:13.838Z,0.00
2022-08-26T00:10:13.818Z,0.00
2022-08-26T00:11:13.836Z,0.00
2022-08-26T00:12:13.793Z,0.00
2022-08-26T00:13:13.777Z,0.00
2022-08-26T00:14:13.939Z,0.00
2022-08-26T00:15:13.757Z,0.00
2022-08-26T00:16:13.783Z,0.00
2022-08-26T00:17:13.764Z,0.00
2022-08-26T00:18:22.017Z,0.00
2022-08-26T00:19:14.781Z,0.00
2022-08-26T00:20:13.708Z,0.00
2022-08-26T00:21:13.699Z,0.00
2022-08-26T00:22:13.688Z,0.00
2022-08-26T00:23:15.803Z,0.00
2022-08-26T00:24:13.671Z,0.00
2022-08-26T00:25:13.656Z,0.00
2022-08-26T00:26:13.649Z,0.00
2022-08-26T00:27:13.639Z,0.00
2022-08-26T00:28:13.631Z,0.00
2022-08-26T00:29:13.651Z,0.00
2022-08-26T00:30:13.609Z,0.00
2022-08-26T00:31:13.597Z,0.00
2022-08-26T00:32:13.590Z,0.00
2022-08-26T00:33:13.580Z,0.00
2022-08-26T00:34:13.913Z,0.00
2022-08-26T00:35:13.581Z,0.00
2022-08-26T00:36:20.257Z,0.00
2022-08-26T00:37:16.256Z,0.00
2022-08-26T00:38:13.531Z,0.00
2022-08-26T00:39:13.513Z,0.00
2022-08-26T00:40:13.542Z,0.00
2022-08-26T00:41:13.521Z,0.00
2022-08-26T00:42:13.485Z,0.00
2022-08-26T00:43:13.474Z,0.00
2022-08-26T00:44:13.467Z,0.00
2022-08-26T00:45:13.453Z,0.00
2022-08-26T00:46:13.500Z,0.00
2022-08-26T00:47:13.463Z,0.00
2022-08-26T00:48:13.425Z,0.00
2022-08-26T00:49:13.414Z,0.00
2022-08-26T00:50:13.402Z,0.00
2022-08-26T00:51:13.386Z,0.00
2022-08-26T00:52:13.385Z,0.00
2022-08-26T00:53:13.396Z,0.00
2022-08-26T00:54:13.364Z,0.00
2022-08-26T00:55:15.434Z,0.00
2022-08-26T00:56:14.338Z,0.00
2022-08-26T00:57:16.339Z,0.00
2022-08-26T00:58:13.318Z,0.00
2022-08-26T00:59:13.328Z,0.00
2022-08-26T01:00:13.297Z,0.00
2022-08-26T01:01:13.300Z,0.00
2022-08-26T01:02:20.967Z,0.00
2022-08-26T01:03:14.261Z,0.00
2022-08-26T01:04:13.259Z,0.00
2022-08-26T01:05:13.268Z,0.00
2022-08-26T01:06:13.268Z,0.00
2022-08-26T01:07:13.229Z,0.00
2022-08-26T01:08:13.218Z,0.00
2022-08-26T01:09:13.200Z,0.00
2022-08-26T01:10:13.201Z,0.00
2022-08-26T01:11:13.200Z,0.00
2022-08-26T01:12:13.171Z,0.00
2022-08-26T01:13:13.159Z,0.00
2022-08-26T01:14:13.164Z,0.00
2022-08-26T01:15:13.133Z,0.00
2022-08-26T01:16:13.199Z,0.00
2022-08-26T01:17:13.144Z,0.00
2022-08-26T01:18:13.112Z,0.00
2022-08-26T01:19:13.101Z,0.00
2022-08-26T01:20:13.092Z,0.00
2022-08-26T01:21:13.071Z,0.00
2022-08-26T01:22:13.070Z,0.00
2022-08-26T01:23:13.085Z,0.00
2022-08-26T01:24:14.064Z,0.00
2022-08-26T01:25:13.035Z,0.00
2022-08-26T01:26:19.665Z,0.00
2022-08-26T01:27:14.014Z,0.00
2022-08-26T01:28:13.005Z,0.00
2022-08-26T01:29:13.034Z,0.00
2022-08-26T01:30:12.985Z,0.00
2022-08-26T01:31:14.723Z,0.00
2022-08-26T01:32:12.963Z,0.00
2022-08-26T01:33:12.946Z,0.00
2022-08-26T01:34:12.944Z,0.00
2022-08-26T01:35:12.967Z,0.00
2022-08-26T01:36:12.927Z,0.00
2022-08-26T01:37:15.665Z,0.00
2022-08-26T01:38:12.898Z,0.00
2022-08-26T01:39:12.880Z,0.00
2022-08-26T01:40:12.924Z,0.00
2022-08-26T01:41:16.166Z,0.00
2022-08-26T01:42:13.861Z,0.00
2022-08-26T01:43:12.858Z,0.00
2022-08-26T01:44:12.839Z,0.00
2022-08-26T01:45:12.820Z,0.00
2022-08-26T01:46:12.834Z,0.00
2022-08-26T01:47:12.830Z,0.00
2022-08-26T01:48:12.800Z,0.00
2022-08-26T01:49:12.780Z,0.00
2022-08-26T01:50:12.780Z,0.00
2022-08-26T01:51:12.763Z,0.00
2022-08-26T01:52:12.752Z,0.00
2022-08-26T01:53:12.770Z,0.00
2022-08-26T01:54:13.757Z,0.00
2022-08-26T01:55:12.720Z,0.00
2022-08-26T01:56:12.713Z,0.00
2022-08-26T01:57:12.702Z,0.00
2022-08-26T01:58:12.694Z,0.00
2022-08-26T01:59:12.703Z,0.00
2022-08-26T02:00:12.673Z,0.00
2022-08-26T02:01:12.738Z,0.00
2022-08-26T02:02:12.652Z,0.00
2022-08-26T02:03:12.638Z,0.00
2022-08-26T02:04:12.683Z,0.00
2022-08-26T02:05:12.637Z,0.00
2022-08-26T02:06:12.607Z,0.00
2022-08-26T02:07:12.600Z,0.00
2022-08-26T02:08:12.587Z,0.00
2022-08-26T02:09:12.574Z,0.00
2022-08-26T02:10:12.571Z,0.00
2022-08-26T02:11:12.577Z,0.00
2022-08-26T02:12:12.546Z,0.00
2022-08-26T02:13:12.528Z,0.00
2022-08-26T02:14:12.527Z,0.00
2022-08-26T02:15:12.518Z,0.00
2022-08-26T02:16:12.554Z,0.00
2022-08-26T02:17:12.519Z,0.00
2022-08-26T02:18:13.973Z,0.00
2022-08-26T02:19:17.118Z,0.00
2022-08-26T02:20:13.337Z,0.00
2022-08-26T02:21:12.445Z,0.00
2022-08-26T02:22:12.439Z,0.00
2022-08-26T02:23:12.451Z,0.00
2022-08-26T02:24:12.418Z,0.00
2022-08-26T02:25:12.407Z,0.00
2022-08-26T02:26:12.397Z,0.00
2022-08-26T02:27:13.380Z,0.00
2022-08-26T02:28:12.379Z,0.00
2022-08-26T02:29:12.407Z,0.00
2022-08-26T02:30:12.358Z,0.00
2022-08-26T02:31:12.375Z,0.00
2022-08-26T02:32:12.339Z,0.00
2022-08-26T02:33:13.323Z,0.00
2022-08-26T02:34:12.326Z,0.00
2022-08-26T02:35:12.333Z,0.00
2022-08-26T02:36:12.294Z,0.00
2022-08-26T02:37:12.284Z,0.00
2022-08-26T02:38:12.273Z,0.00
2022-08-26T02:39:12.254Z,0.00
2022-08-26T02:40:12.279Z,0.00
2022-08-26T02:41:12.275Z,0.00
2022-08-26T02:42:12.226Z,0.00
2022-08-26T02:43:12.215Z,0.00
2022-08-26T02:44:12.205Z,0.00
2022-08-26T02:45:12.196Z,0.00
2022-08-26T02:46:12.213Z,0.00
2022-08-26T02:47:13.249Z,0.00
2022-08-26T02:48:12.166Z,0.00
2022-08-26T02:49:12.154Z,0.00
2022-08-26T02:50:12.147Z,0.00
2022-08-26T02:51:12.137Z,0.00
2022-08-26T02:52:12.129Z,0.00
2022-08-26T02:53:12.139Z,0.00
2022-08-26T02:54:12.107Z,0.00
2022-08-26T02:55:12.089Z,0.00
2022-08-26T02:56:12.078Z,0.00
2022-08-26T02:57:12.081Z,0.00
2022-08-26T02:58:12.066Z,0.00
2022-08-26T02:59:12.080Z,0.00
2022-08-26T03:00:12.048Z,0.00
2022-08-26T03:01:12.100Z,0.00
2022-08-26T03:02:12.051Z,0.00
2022-08-26T03:03:12.009Z,0.00
2022-08-26T03:04:12.156Z,0.00
2022-08-26T03:05:12.020Z,0.00
2022-08-26T03:06:11.984Z,0.00
2022-08-26T03:07:11.969Z,0.00
2022-08-26T03:08:11.966Z,0.00
2022-08-26T03:09:18.842Z,0.00
2022-08-26T03:10:12.971Z,0.00
2022-08-26T03:11:11.923Z,0.00
2022-08-26T03:12:11.921Z,0.00
2022-08-26T03:13:11.904Z,0.00
2022-08-26T03:14:11.900Z,0.00
2022-08-26T03:15:17.339Z,0.00
2022-08-26T03:16:12.900Z,1.00
2022-08-26T03:17:11.812Z,1.00
2022-08-26T03:18:11.804Z,1.00
2022-08-26T03:19:11.783Z,1.00
2022-08-26T03:20:11.785Z,1.00
2022-08-26T03:21:11.773Z,1.00
2022-08-26T03:22:11.784Z,1.00
2022-08-26T03:23:11.757Z,1.00
2022-08-26T03:24:11.742Z,1.00
2022-08-26T03:25:11.732Z,2.00
2022-08-26T03:26:11.724Z,2.00
2022-08-26T03:27:11.707Z,2.00
2022-08-26T03:28:11.742Z,3.00
2022-08-26T03:29:11.686Z,2.00
2022-08-26T03:30:12.006Z,3.00
2022-08-26T03:31:11.720Z,3.00
2022-08-26T03:32:11.657Z,3.00
2022-08-26T03:33:11.649Z,4.00
2022-08-26T03:34:11.667Z,4.00
2022-08-26T03:35:11.630Z,4.00
2022-08-26T03:36:11.619Z,5.00
2022-08-26T03:37:11.607Z,5.00
2022-08-26T03:38:11.609Z,5.00
2022-08-26T03:39:11.579Z,6.00
2022-08-26T03:40:11.752Z,7.00
2022-08-26T03:41:11.568Z,7.00
2022-08-26T03:42:11.549Z,8.00
2022-08-26T03:43:11.540Z,8.00
2022-08-26T03:44:11.532Z,9.00
2022-08-26T03:45:11.521Z,9.00
2022-08-26T03:46:11.586Z,9.00
2022-08-26T03:47:11.501Z,10.00
2022-08-26T03:48:11.497Z,10.00
2022-08-26T03:49:11.493Z,11.00
2022-08-26T03:50:11.510Z,12.00
2022-08-26T03:51:11.523Z,12.00
2022-08-26T03:52:11.493Z,12.00
2022-08-26T03:53:12.814Z,13.00
2022-08-26T03:54:11.423Z,13.00
2022-08-26T03:55:11.439Z,14.00
2022-08-26T03:56:11.412Z,15.00
2022-08-26T03:57:11.404Z,16.00
2022-08-26T03:58:11.541Z,16.00
2022-08-26T03:59:11.385Z,16.00
2022-08-26T04:00:11.363Z,18.00
2022-08-26T04:01:11.364Z,18.00
2022-08-26T04:02:11.947Z,19.00
2022-08-26T04:03:14.643Z,22.00
2022-08-26T04:04:12.479Z,20.00
2022-08-26T04:05:11.324Z,21.00
2022-08-26T04:06:11.306Z,21.00
2022-08-26T04:07:11.305Z,23.00
2022-08-26T04:08:11.287Z,24.00
2022-08-26T04:09:11.287Z,25.00
2022-08-26T04:10:11.297Z,26.00
2022-08-26T04:11:11.264Z,26.00
2022-08-26T04:12:11.246Z,27.00
2022-08-26T04:13:11.246Z,28.00
2022-08-26T04:14:11.228Z,28.00
2022-08-26T04:15:11.218Z,29.00
2022-08-26T04:16:11.273Z,30.00
2022-08-26T04:17:11.200Z,31.00
2022-08-26T04:18:11.177Z,32.00
2022-08-26T04:19:11.178Z,33.00
2022-08-26T04:20:11.168Z,34.00
2022-08-26T04:21:11.157Z,35.00
2022-08-26T04:22:11.170Z,35.00
2022-08-26T04:23:11.138Z,37.00
2022-08-26T04:24:12.298Z,37.00
2022-08-26T04:25:11.117Z,38.00
2022-08-26T04:26:11.109Z,40.00
2022-08-26T04:27:11.099Z,39.00
2022-08-26T04:28:11.112Z,64.00
2022-08-26T04:29:11.071Z,61.00
2022-08-26T04:30:11.064Z,57.00
2022-08-26T04:31:11.082Z,55.00
2022-08-26T04:32:11.041Z,51.00
2022-08-26T04:33:12.734Z,57.00
2022-08-26T04:34:11.208Z,64.00
2022-08-26T04:35:11.013Z,66.00
2022-08-26T04:36:11.001Z,59.00
2022-08-26T04:37:10.991Z,60.00
2022-08-26T04:38:10.974Z,51.00
2022-08-26T04:39:10.964Z,59.00
2022-08-26T04:40:11.025Z,58.00
2022-08-26T04:41:15.569Z,52.00
2022-08-26T04:42:11.935Z,65.00
2022-08-26T04:43:10.937Z,84.00
2022-08-26T04:44:10.916Z,100.00
2022-08-26T04:45:11.790Z,111.00
2022-08-26T04:46:10.962Z,120.00
2022-08-26T04:47:10.884Z,122.00
2022-08-26T04:48:11.149Z,118.00
2022-08-26T04:49:10.865Z,114.00
2022-08-26T04:50:10.891Z,109.00
2022-08-26T04:51:10.838Z,110.00
2022-08-26T04:52:10.867Z,113.00
2022-08-26T04:53:10.819Z,123.00
2022-08-26T04:54:10.807Z,138.00
2022-08-26T04:55:10.802Z,150.00
2022-08-26T04:56:10.790Z,156.00
2022-08-26T04:57:10.778Z,152.00
2022-08-26T04:58:10.798Z,156.00
2022-08-26T04:59:16.797Z,168.00
2022-08-26T05:00:11.749Z,173.00
2022-08-26T05:01:10.770Z,179.00
2022-08-26T05:02:10.728Z,177.00
2022-08-26T05:03:10.833Z,174.00
2022-08-26T05:04:10.764Z,174.00
2022-08-26T05:05:10.692Z,169.00
2022-08-26T05:06:10.681Z,158.00
2022-08-26T05:07:10.681Z,135.00
2022-08-26T05:08:11.289Z,112.00
2022-08-26T05:09:10.655Z,108.00
2022-08-26T05:10:10.672Z,106.00
2022-08-26T05:11:10.634Z,101.00
2022-08-26T05:12:10.623Z,96.00
2022-08-26T05:13:12.092Z,98.00
2022-08-26T05:14:10.611Z,100.00
2022-08-26T05:15:10.596Z,99.00
2022-08-26T05:16:11.579Z,104.00
2022-08-26T05:17:10.583Z,110.00
2022-08-26T05:18:10.574Z,112.00
2022-08-26T05:19:10.546Z,114.00
2022-08-26T05:20:10.546Z,115.00
2022-08-26T05:21:10.535Z,115.00
2022-08-26T05:22:10.556Z,113.00
2022-08-26T05:23:10.567Z,110.00
2022-08-26T05:24:10.506Z,107.00
2022-08-26T05:25:10.487Z,101.00
2022-08-26T05:26:10.499Z,102.00
2022-08-26T05:27:11.611Z,109.00
2022-08-26T05:28:10.497Z,109.00
2022-08-26T05:29:10.457Z,110.00
2022-08-26T05:30:10.446Z,113.00
2022-08-26T05:31:10.449Z,114.00
2022-08-26T05:32:11.265Z,110.00
2022-08-26T05:33:10.588Z,108.00
2022-08-26T05:34:10.429Z,108.00
2022-08-26T05:35:10.391Z,112.00
2022-08-26T05:36:10.380Z,116.00
2022-08-26T05:37:10.371Z,113.00
2022-08-26T05:38:12.617Z,111.00
2022-08-26T05:39:10.760Z,111.00
2022-08-26T05:40:10.425Z,112.00
2022-08-26T05:41:10.332Z,113.00
2022-08-26T05:42:10.321Z,117.00
2022-08-26T05:43:10.387Z,120.00
2022-08-26T05:44:10.293Z,118.00
2022-08-26T05:45:10.284Z,113.00
2022-08-26T05:46:10.357Z,111.00
2022-08-26T05:47:10.263Z,106.00
2022-08-26T05:48:10.273Z,105.00
2022-08-26T05:49:12.503Z,108.00
2022-08-26T05:50:10.235Z,118.00
2022-08-26T05:51:10.215Z,125.00
2022-08-26T05:52:10.233Z,129.00
2022-08-26T05:53:10.237Z,133.00
2022-08-26T05:54:10.263Z,144.00
2022-08-26T05:55:10.185Z,157.00
2022-08-26T05:56:10.168Z,165.00
2022-08-26T05:57:10.165Z,172.00
2022-08-26T05:58:10.180Z,176.00
2022-08-26T05:59:14.445Z,189.00
2022-08-26T06:00:10.128Z,209.00
2022-08-26T06:01:10.225Z,207.00
2022-08-26T06:02:10.107Z,210.00
2022-08-26T06:03:10.328Z,226.00
2022-08-26T06:04:10.108Z,236.00
2022-08-26T06:05:10.076Z,231.00
2022-08-26T06:06:10.059Z,230.00
2022-08-26T06:07:11.556Z,232.00
2022-08-26T06:08:10.047Z,236.00
2022-08-26T06:09:11.158Z,240.00
2022-08-26T06:10:30.977Z,251.00
2022-08-26T06:11:18.289Z,253.00
2022-08-26T06:12:11.008Z,228.00
2022-08-26T06:13:11.923Z,193.00
2022-08-26T06:14:09.983Z,189.00
2022-08-26T06:15:09.971Z,176.00
2022-08-26T06:16:10.056Z,184.00
2022-08-26T06:17:09.951Z,190.00
2022-08-26T06:18:09.950Z,191.00
2022-08-26T06:19:11.043Z,191.00
2022-08-26T06:20:09.923Z,193.00
2022-08-26T06:21:09.903Z,223.00
2022-08-26T06:22:09.924Z,282.00
2022-08-26T06:23:10.045Z,283.00
2022-08-26T06:24:09.875Z,303.00
2022-08-26T06:25:09.991Z,342.00
2022-08-26T06:26:11.070Z,377.00
2022-08-26T06:27:09.846Z,552.00
2022-08-26T06:28:09.867Z,571.00
2022-08-26T06:29:09.833Z,435.00
2022-08-26T06:30:09.825Z,320.00
2022-08-26T06:31:09.841Z,306.00
2022-08-26T06:32:09.804Z,327.00
2022-08-26T06:33:09.939Z,717.00
2022-08-26T06:34:10.921Z,613.00
2022-08-26T06:35:12.231Z,475.00
2022-08-26T06:36:09.791Z,522.00
2022-08-26T06:37:09.746Z,629.00
2022-08-26T06:38:09.743Z,704.00
2022-08-26T06:39:09.726Z,711.00
2022-08-26T06:40:09.801Z,695.00
2022-08-26T06:41:09.700Z,650.00
2022-08-26T06:42:11.786Z,649.00
2022-08-26T06:43:09.924Z,700.00
2022-08-26T06:44:09.673Z,690.00
2022-08-26T06:45:09.660Z,667.00
2022-08-26T06:46:10.011Z,657.00
2022-08-26T06:47:09.639Z,659.00
2022-08-26T06:48:09.632Z,649.00
2022-08-26T06:49:09.613Z,1099.00
2022-08-26T06:50:09.622Z,634.00
2022-08-26T06:51:09.601Z,634.00
2022-08-26T06:52:09.622Z,634.00
2022-08-26T06:53:09.634Z,635.00
2022-08-26T06:54:09.565Z,640.00
2022-08-26T06:55:09.560Z,642.00
2022-08-26T06:56:09.545Z,648.00
2022-08-26T06:57:09.537Z,657.00
2022-08-26T06:58:09.557Z,669.00
2022-08-26T06:59:09.516Z,674.00
2022-08-26T07:00:09.535Z,677.00
2022-08-26T07:01:11.598Z,684.00
2022-08-26T07:02:09.586Z,694.00
2022-08-26T07:03:09.676Z,700.00
2022-08-26T07:04:10.523Z,707.00
2022-08-26T07:05:09.458Z,709.00
2022-08-26T07:06:09.440Z,715.00
2022-08-26T07:07:09.695Z,719.00
2022-08-26T07:08:09.483Z,727.00
2022-08-26T07:09:09.972Z,738.00
2022-08-26T07:10:09.421Z,749.00
2022-08-26T07:11:09.390Z,756.00
2022-08-26T07:12:09.381Z,762.00
2022-08-26T07:13:09.565Z,769.00
2022-08-26T07:14:09.362Z,778.00
2022-08-26T07:15:09.350Z,785.00
2022-08-26T07:16:09.391Z,795.00
2022-08-26T07:17:13.713Z,811.00
2022-08-26T07:18:10.322Z,828.00
2022-08-26T07:19:11.057Z,844.00
2022-08-26T07:20:09.302Z,862.00
2022-08-26T07:21:09.286Z,886.00
2022-08-26T07:22:09.306Z,916.00
2022-08-26T07:23:10.081Z,950.00
2022-08-26T07:24:09.267Z,862.00
2022-08-26T07:25:09.248Z,766.00
2022-08-26T07:26:09.238Z,955.00
2022-08-26T07:27:09.227Z,1041.00
2022-08-26T07:28:09.238Z,2162.00
2022-08-26T07:29:09.209Z,539.00
2022-08-26T07:30:09.198Z,766.00
2022-08-26T07:31:09.653Z,1900.00
2022-08-26T07:32:09.182Z,428.00
2022-08-26T07:33:09.322Z,629.00
2022-08-26T07:34:09.181Z,735.00
2022-08-26T07:35:09.144Z,726.00
2022-08-26T07:36:09.134Z,1055.00
2022-08-26T07:37:09.119Z,1057.00
2022-08-26T07:38:09.112Z,1016.00
2022-08-26T07:39:09.105Z,1251.00
2022-08-26T07:40:09.212Z,1257.00
2022-08-26T07:41:09.094Z,1168.00
2022-08-26T07:42:09.075Z,874.00
2022-08-26T07:43:09.276Z,634.00
2022-08-26T07:44:09.044Z,553.00
2022-08-26T07:45:09.052Z,1261.00
2022-08-26T07:46:11.288Z,1264.00
2022-08-26T07:47:24.165Z,1284.00
2022-08-26T07:48:10.006Z,2308.00
2022-08-26T07:49:09.061Z,1291.00
2022-08-26T07:50:08.986Z,1299.00
2022-08-26T07:51:08.976Z,1344.00
2022-08-26T07:52:09.007Z,3788.00
2022-08-26T07:53:10.609Z,440.00
2022-08-26T07:54:08.958Z,521.00
2022-08-26T07:55:08.939Z,650.00
2022-08-26T07:56:08.930Z,672.00
2022-08-26T07:57:09.381Z,1288.00
2022-08-26T07:58:08.931Z,1109.00
2022-08-26T07:59:13.948Z,1065.00
2022-08-26T08:00:09.888Z,2898.00
2022-08-26T08:01:08.942Z,1180.00
2022-08-26T08:02:08.872Z,1334.00
2022-08-26T08:03:08.993Z,1364.00
2022-08-26T08:04:08.869Z,918.00
2022-08-26T08:05:08.912Z,1580.00
2022-08-26T08:06:08.822Z,1597.00
2022-08-26T08:07:11.487Z,1498.00
2022-08-26T08:08:26.942Z,1284.00
2022-08-26T08:09:09.836Z,1129.00
2022-08-26T08:10:11.365Z,969.00
2022-08-26T08:11:09.877Z,923.00
2022-08-26T08:12:08.766Z,781.00
2022-08-26T08:13:10.051Z,748.00
2022-08-26T08:14:08.805Z,756.00
2022-08-26T08:15:08.756Z,754.00
2022-08-26T08:16:12.444Z,730.00
2022-08-26T08:17:08.891Z,644.00
2022-08-26T08:18:15.523Z,577.00
2022-08-26T08:19:09.689Z,529.00
2022-08-26T08:20:08.680Z,482.00
2022-08-26T08:21:20.900Z,444.00
2022-08-26T08:22:17.436Z,418.00
2022-08-26T08:23:09.642Z,402.00
2022-08-26T08:24:08.631Z,384.00
2022-08-26T08:25:10.579Z,367.00
2022-08-26T08:26:08.625Z,354.00
2022-08-26T08:27:08.673Z,344.00
2022-08-26T08:28:08.691Z,338.00
2022-08-26T08:29:08.610Z,336.00
2022-08-26T08:30:08.572Z,333.00
2022-08-26T08:31:08.638Z,326.00
2022-08-26T08:32:11.532Z,313.00
2022-08-26T08:33:09.564Z,304.00
2022-08-26T08:34:08.535Z,297.00
2022-08-26T08:35:10.712Z,291.00
2022-08-26T08:36:09.229Z,287.00
2022-08-26T08:37:10.635Z,283.00
2022-08-26T08:38:08.633Z,283.00
2022-08-26T08:39:08.510Z,283.00
2022-08-26T08:40:08.498Z,286.00
2022-08-26T08:41:08.469Z,288.00
2022-08-26T08:42:08.447Z,292.00
2022-08-26T08:43:08.546Z,293.00
2022-08-26T08:44:08.420Z,295.00
2022-08-26T08:45:08.452Z,296.00
2022-08-26T08:46:08.426Z,297.00
2022-08-26T08:47:08.401Z,297.00
2022-08-26T08:48:08.479Z,297.00
2022-08-26T08:49:08.382Z,298.00
2022-08-26T08:50:08.361Z,300.00
2022-08-26T08:51:08.380Z,300.00
2022-08-26T08:52:08.341Z,303.00
2022-08-26T08:53:09.004Z,304.00
2022-08-26T08:54:08.321Z,301.00
2022-08-26T08:55:10.381Z,298.00
2022-08-26T08:56:08.305Z,293.00
2022-08-26T08:57:08.323Z,289.00
2022-08-26T08:58:08.530Z,288.00
2022-08-26T08:59:08.276Z,286.00
2022-08-26T09:00:08.265Z,281.00
2022-08-26T09:01:08.273Z,274.00
2022-08-26T09:02:08.274Z,268.00
2022-08-26T09:03:08.257Z,261.00
2022-08-26T09:04:08.218Z,253.00
2022-08-26T09:05:08.244Z,246.00
2022-08-26T09:06:08.205Z,241.00
2022-08-26T09:07:08.198Z,239.00
2022-08-26T09:08:08.355Z,236.00
2022-08-26T09:09:08.208Z,232.00
2022-08-26T09:10:08.159Z,227.00
2022-08-26T09:11:08.149Z,224.00
2022-08-26T09:12:08.140Z,221.00
2022-08-26T09:13:08.129Z,219.00
2022-08-26T09:14:08.120Z,219.00
2022-08-26T09:15:08.142Z,223.00
2022-08-26T09:16:08.101Z,228.00
2022-08-26T09:17:08.117Z,234.00
2022-08-26T09:18:08.195Z,242.00
2022-08-26T09:19:08.074Z,251.00
2022-08-26T09:20:08.064Z,258.00
2022-08-26T09:21:08.075Z,266.00
2022-08-26T09:22:09.727Z,274.00
2022-08-26T09:23:08.209Z,281.00
2022-08-26T09:24:08.036Z,288.00
2022-08-26T09:25:08.016Z,295.00
2022-08-26T09:26:08.004Z,304.00
2022-08-26T09:27:08.016Z,313.00
2022-08-26T09:28:08.075Z,320.00
2022-08-26T09:29:08.005Z,323.00
2022-08-26T09:30:07.957Z,326.00
2022-08-26T09:31:11.222Z,325.00
2022-08-26T09:32:07.929Z,319.00
2022-08-26T09:33:10.180Z,313.00
2022-08-26T09:34:07.921Z,310.00
2022-08-26T09:35:07.918Z,312.00
2022-08-26T09:36:07.889Z,316.00
2022-08-26T09:37:07.881Z,326.00
2022-08-26T09:38:11.663Z,334.00
2022-08-26T09:39:07.887Z,338.00
2022-08-26T09:40:07.902Z,343.00
2022-08-26T09:41:07.841Z,349.00
2022-08-26T09:42:07.831Z,352.00
2022-08-26T09:43:07.821Z,350.00
2022-08-26T09:44:07.810Z,351.00
2022-08-26T09:45:08.831Z,351.00
2022-08-26T09:46:07.807Z,352.00
2022-08-26T09:47:07.780Z,349.00
2022-08-26T09:48:07.971Z,343.00
2022-08-26T09:49:07.764Z,340.00
2022-08-26T09:50:09.627Z,342.00
2022-08-26T09:51:07.818Z,355.00
2022-08-26T09:52:07.716Z,381.00
2022-08-26T09:53:09.874Z,393.00
2022-08-26T09:54:08.706Z,386.00
2022-08-26T09:55:07.698Z,379.00
2022-08-26T09:56:07.692Z,366.00
2022-08-26T09:57:07.698Z,350.00
2022-08-26T09:58:07.990Z,339.00
2022-08-26T09:59:07.657Z,335.00
2022-08-26T10:00:07.646Z,333.00
2022-08-26T10:01:07.697Z,332.00
2022-08-26T10:02:07.679Z,328.00
2022-08-26T10:03:07.725Z,326.00
2022-08-26T10:04:07.660Z,324.00
2022-08-26T10:05:09.648Z,325.00
2022-08-26T10:06:07.634Z,325.00
2022-08-26T10:07:07.589Z,324.00
2022-08-26T10:08:07.561Z,329.00
2022-08-26T10:09:09.906Z,347.00
2022-08-26T10:10:07.551Z,371.00
2022-08-26T10:11:07.533Z,399.00
2022-08-26T10:12:07.531Z,420.00
2022-08-26T10:13:07.665Z,432.00
2022-08-26T10:14:07.504Z,437.00
2022-08-26T10:15:07.533Z,436.00
2022-08-26T10:16:07.488Z,433.00
2022-08-26T10:17:07.474Z,434.00
2022-08-26T10:18:07.603Z,439.00
2022-08-26T10:19:07.459Z,445.00
2022-08-26T10:20:22.663Z,452.00
2022-08-26T10:21:08.458Z,466.00
2022-08-26T10:22:07.419Z,492.00
2022-08-26T10:23:07.431Z,526.00
2022-08-26T10:24:07.408Z,559.00
2022-08-26T10:25:07.398Z,625.00
2022-08-26T10:26:07.389Z,658.00
2022-08-26T10:27:07.401Z,583.00
2022-08-26T10:28:07.475Z,578.00
2022-08-26T10:29:07.361Z,579.00
2022-08-26T10:30:07.341Z,583.00
2022-08-26T10:31:07.340Z,590.00
2022-08-26T10:32:07.369Z,579.00
2022-08-26T10:33:07.436Z,555.00
2022-08-26T10:34:07.300Z,538.00
2022-08-26T10:35:07.294Z,536.00
2022-08-26T10:36:07.283Z,547.00
2022-08-26T10:37:14.865Z,541.00
2022-08-26T10:38:08.459Z,526.00
2022-08-26T10:39:07.254Z,515.00
2022-08-26T10:40:07.309Z,502.00
2022-08-26T10:41:09.671Z,488.00
2022-08-26T10:42:07.216Z,479.00
2022-08-26T10:43:11.277Z,471.00
2022-08-26T10:44:07.226Z,465.00
2022-08-26T10:45:07.590Z,463.00
2022-08-26T10:46:07.332Z,462.00
2022-08-26T10:47:07.168Z,461.00
2022-08-26T10:48:07.482Z,459.00
2022-08-26T10:49:07.158Z,458.00
2022-08-26T10:50:07.169Z,458.00
2022-08-26T10:51:07.129Z,458.00
2022-08-26T10:52:15.166Z,455.00
2022-08-26T10:53:08.695Z,454.00
2022-08-26T10:54:07.100Z,456.00
2022-08-26T10:55:07.088Z,459.00
2022-08-26T10:56:15.666Z,463.00
2022-08-26T10:57:09.630Z,470.00
2022-08-26T10:58:09.220Z,481.00
2022-08-26T10:59:07.052Z,493.00
2022-08-26T11:00:08.043Z,508.00
2022-08-26T11:01:10.297Z,521.00
2022-08-26T11:02:07.038Z,531.00
2022-08-26T11:03:09.460Z,548.00
2022-08-26T11:04:08.037Z,566.00
2022-08-26T11:05:06.984Z,585.00
2022-08-26T11:06:06.967Z,599.00
2022-08-26T11:07:06.967Z,597.00
2022-08-26T11:08:07.197Z,602.00
2022-08-26T11:09:06.936Z,605.00
2022-08-26T11:10:06.924Z,598.00
2022-08-26T11:11:06.916Z,572.00
2022-08-26T11:12:06.960Z,551.00
2022-08-26T11:13:06.945Z,536.00
2022-08-26T11:14:06.929Z,527.00
2022-08-26T11:15:06.879Z,517.00
2022-08-26T11:16:06.878Z,505.00
2022-08-26T11:17:06.851Z,494.00
2022-08-26T11:18:06.879Z,484.00
2022-08-26T11:19:06.844Z,471.00
2022-08-26T11:20:13.374Z,469.00
2022-08-26T11:21:10.237Z,489.00
2022-08-26T11:22:06.799Z,511.00
2022-08-26T11:23:06.794Z,513.00
2022-08-26T11:24:06.783Z,521.00
2022-08-26T11:25:06.776Z,534.00
2022-08-26T11:26:06.782Z,546.00
2022-08-26T11:27:06.755Z,558.00
2022-08-26T11:28:06.807Z,579.00
2022-08-26T11:29:12.201Z,629.00
2022-08-26T11:30:07.741Z,740.00
2022-08-26T11:31:06.774Z,784.00
2022-08-26T11:32:06.724Z,700.00
2022-08-26T11:33:06.774Z,691.00
2022-08-26T11:34:06.678Z,699.00
2022-08-26T11:35:06.668Z,668.00
2022-08-26T11:36:12.430Z,656.00
2022-08-26T11:37:07.694Z,709.00
2022-08-26T11:38:06.637Z,717.00
2022-08-26T11:39:06.628Z,593.00
2022-08-26T11:40:06.651Z,565.00
2022-08-26T11:41:06.601Z,549.00
2022-08-26T11:42:06.592Z,539.00
2022-08-26T11:43:06.611Z,541.00
2022-08-26T11:44:06.573Z,545.00
2022-08-26T11:45:06.570Z,549.00
2022-08-26T11:46:06.583Z,557.00
2022-08-26T11:47:06.545Z,572.00
2022-08-26T11:48:07.738Z,600.00
2022-08-26T11:49:06.526Z,639.00
2022-08-26T11:50:06.510Z,669.00
2022-08-26T11:51:06.505Z,708.00
2022-08-26T11:52:06.495Z,858.00
2022-08-26T11:53:06.593Z,855.00
2022-08-26T11:54:06.497Z,611.00
2022-08-26T11:55:06.467Z,582.00
2022-08-26T11:56:06.448Z,554.00
2022-08-26T11:57:11.848Z,536.00
2022-08-26T11:58:07.680Z,514.00
2022-08-26T11:59:06.427Z,490.00
2022-08-26T12:00:07.405Z,472.00
2022-08-26T12:01:06.412Z,463.00
2022-08-26T12:02:06.390Z,462.00
2022-08-26T12:03:06.573Z,464.00
2022-08-26T12:04:06.516Z,467.00
2022-08-26T12:05:06.368Z,466.00
2022-08-26T12:06:06.372Z,467.00
2022-08-26T12:07:06.342Z,471.00
2022-08-26T12:08:06.381Z,476.00
2022-08-26T12:09:06.333Z,479.00
2022-08-26T12:10:06.305Z,488.00
2022-08-26T12:11:06.303Z,495.00
2022-08-26T12:12:06.332Z,487.00
2022-08-26T12:13:06.282Z,485.00
2022-08-26T12:14:07.277Z,481.00
2022-08-26T12:15:06.261Z,474.00
2022-08-26T12:16:06.292Z,466.00
2022-08-26T12:17:06.244Z,458.00
2022-08-26T12:18:06.331Z,450.00
2022-08-26T12:19:06.226Z,441.00
2022-08-26T12:20:06.209Z,433.00
2022-08-26T12:21:06.197Z,425.00
2022-08-26T12:22:06.186Z,421.00
2022-08-26T12:23:06.176Z,420.00
2022-08-26T12:24:06.198Z,421.00
2022-08-26T12:25:06.155Z,424.00
2022-08-26T12:26:06.157Z,428.00
2022-08-26T12:27:06.140Z,432.00
2022-08-26T12:28:06.173Z,437.00
2022-08-26T12:29:12.658Z,440.00
2022-08-26T12:30:08.469Z,443.00
2022-08-26T12:31:06.104Z,447.00
2022-08-26T12:32:06.093Z,453.00
2022-08-26T12:33:14.164Z,460.00
2022-08-26T12:34:07.071Z,468.00
2022-08-26T12:36:06.074Z,489.00
2022-08-26T12:37:06.044Z,503.00
2022-08-26T12:38:06.048Z,518.00
2022-08-26T12:39:06.022Z,531.00
2022-08-26T12:40:06.067Z,542.00
2022-08-26T12:41:05.996Z,551.00
2022-08-26T12:42:06.024Z,557.00
2022-08-26T12:43:05.983Z,570.00
2022-08-26T12:44:05.973Z,594.00